createdAt,value
2023-03-22T00:02:04.865Z,5.87
2023-03-22T00:04:32.254Z,5.73
2023-03-22T00:07:00.168Z,5.90
2023-03-22T00:09:30.814Z,5.80
2023-03-22T00:11:57.617Z,6.33
2023-03-22T00:14:24.661Z,4.90
2023-03-22T00:16:51.427Z,6.03
2023-03-22T00:19:18.413Z,6.10
2023-03-22T00:21:46.369Z,5.50
2023-03-22T00:24:13.525Z,5.57
2023-03-22T00:26:47.653Z,6.10
2023-03-22T00:29:14.711Z,5.70
2023-03-22T00:31:41.530Z,5.33
2023-03-22T00:34:08.713Z,6.10
2023-03-22T00:36:37.902Z,5.63
2023-03-22T00:39:04.900Z,5.40
2023-03-22T00:41:31.994Z,5.37
2023-03-22T00:43:58.794Z,5.43
2023-03-22T00:46:26.498Z,5.57
2023-03-22T00:48:54.040Z,5.60
2023-03-22T00:51:21.053Z,5.70
2023-03-22T00:53:51.060Z,5.83
2023-03-22T00:56:19.012Z,5.80
2023-03-22T00:58:53.892Z,5.37
2023-03-22T01:01:20.875Z,5.30
2023-03-22T01:03:51.061Z,5.80
2023-03-22T01:06:20.761Z,5.13
2023-03-22T01:08:51.029Z,5.70
2023-03-22T01:11:21.674Z,5.77
2023-03-22T01:13:48.514Z,5.80
2023-03-22T01:16:16.488Z,5.57
2023-03-22T01:18:43.614Z,5.40
2023-03-22T01:21:16.609Z,5.50
2023-03-22T01:23:43.436Z,5.83
2023-03-22T01:26:10.234Z,5.70
2023-03-22T01:28:37.809Z,5.80
2023-03-22T01:31:04.707Z,6.00
2023-03-22T01:33:33.991Z,5.73
2023-03-22T01:36:01.460Z,5.93
2023-03-22T01:38:28.614Z,5.70
2023-03-22T01:40:55.779Z,5.93
2023-03-22T01:43:22.566Z,5.87
2023-03-22T01:45:51.974Z,5.93
2023-03-22T01:48:26.778Z,5.93
2023-03-22T01:51:03.274Z,6.40
2023-03-22T01:53:34.189Z,6.50
2023-03-22T01:56:09.849Z,6.23
2023-03-22T01:58:38.065Z,5.80
2023-03-22T02:01:07.754Z,5.97
2023-03-22T02:03:43.664Z,6.23
2023-03-22T02:06:10.716Z,6.10
2023-03-22T02:08:37.548Z,5.47
2023-03-22T02:11:05.083Z,6.17
2023-03-22T02:13:42.650Z,6.07
2023-03-22T02:16:18.234Z,5.67
2023-03-22T02:19:29.501Z,5.90
2023-03-22T02:22:21.807Z,5.90
2023-03-22T02:25:00.626Z,6.30
2023-03-22T02:28:00.785Z,5.93
2023-03-22T02:30:45.918Z,5.57
2023-03-22T02:33:33.515Z,6.17
2023-03-22T02:36:06.230Z,5.40
2023-03-22T02:38:52.764Z,6.17
2023-03-22T02:41:37.351Z,5.77
2023-03-22T02:44:30.566Z,5.63
2023-03-22T02:47:02.050Z,6.00
2023-03-22T02:49:35.494Z,5.70
2023-03-22T02:52:19.488Z,6.07
2023-03-22T02:55:11.405Z,5.27
2023-03-22T02:57:45.093Z,5.50
2023-03-22T03:00:15.937Z,5.77
2023-03-22T03:02:51.449Z,5.70
2023-03-22T03:05:26.330Z,5.67
2023-03-22T03:07:58.484Z,5.43
2023-03-22T03:10:27.048Z,5.50
2023-03-22T03:12:53.942Z,5.30
2023-03-22T03:15:23.839Z,5.33
2023-03-22T03:18:09.738Z,5.83
2023-03-22T03:21:19.416Z,5.97
2023-03-22T03:24:13.417Z,4.87
2023-03-22T03:26:49.579Z,5.67
2023-03-22T03:29:37.240Z,5.90
2023-03-22T03:32:13.528Z,5.80
2023-03-22T03:34:51.423Z,5.60
2023-03-22T03:37:27.008Z,5.53
2023-03-22T03:40:11.154Z,6.07
2023-03-22T03:42:46.808Z,5.70
2023-03-22T03:45:15.527Z,5.80
2023-03-22T03:47:46.185Z,6.07
2023-03-22T03:50:16.146Z,6.07
2023-03-22T03:52:43.478Z,6.33
2023-03-22T03:55:10.884Z,6.80
2023-03-22T03:57:37.761Z,6.53
2023-03-22T04:00:05.879Z,6.10
2023-03-22T04:02:33.364Z,6.90
2023-03-22T04:05:00.151Z,6.90
2023-03-22T04:07:27.389Z,6.50
2023-03-22T04:09:55.724Z,6.93
2023-03-22T04:12:22.571Z,6.37
2023-03-22T04:14:49.415Z,6.57
2023-03-22T04:17:16.400Z,6.20
2023-03-22T04:19:44.631Z,6.80
2023-03-22T04:22:14.964Z,6.97
2023-03-22T04:24:42.603Z,6.50
2023-03-22T04:27:09.521Z,6.70
2023-03-22T04:29:36.828Z,7.07
2023-03-22T04:32:03.923Z,6.43
2023-03-22T04:34:31.529Z,6.97
2023-03-22T04:37:02.737Z,7.43
2023-03-22T04:39:29.603Z,7.13
2023-03-22T04:41:56.758Z,6.90
2023-03-22T04:44:23.904Z,6.80
2023-03-22T04:46:52.825Z,7.17
2023-03-22T04:49:19.809Z,7.03
2023-03-22T04:51:46.732Z,7.10
2023-03-22T04:54:14.184Z,7.20
2023-03-22T04:56:40.948Z,7.03
2023-03-22T04:59:07.754Z,7.13
2023-03-22T05:01:39.248Z,6.87
2023-03-22T05:04:06.316Z,7.37
2023-03-22T05:06:33.451Z,7.17
2023-03-22T05:09:01.581Z,7.53
2023-03-22T05:11:28.450Z,7.47
2023-03-22T05:13:55.759Z,7.40
2023-03-22T05:16:23.644Z,6.77
2023-03-22T05:18:58.451Z,7.27
2023-03-22T05:21:29.525Z,7.53
2023-03-22T05:23:57.590Z,7.30
2023-03-22T05:26:26.587Z,7.63
2023-03-22T05:28:55.491Z,6.93
2023-03-22T05:31:23.004Z,6.93
2023-03-22T05:33:54.909Z,7.57
2023-03-22T05:36:23.038Z,6.67
2023-03-22T05:38:50.210Z,7.03
2023-03-22T05:41:17.419Z,6.83
2023-03-22T05:43:44.449Z,7.30
2023-03-22T05:46:12.528Z,6.80
2023-03-22T05:48:40.763Z,6.77
2023-03-22T05:51:17.712Z,6.73
2023-03-22T05:53:46.150Z,6.53
2023-03-22T05:56:14.015Z,6.60
2023-03-22T05:58:42.366Z,6.73
2023-03-22T06:01:16.383Z,7.30
2023-03-22T06:03:46.177Z,6.40
2023-03-22T06:06:13.802Z,6.70
2023-03-22T06:08:41.406Z,6.63
2023-03-22T06:11:12.035Z,6.60
2023-03-22T06:13:39.035Z,5.80
2023-03-22T06:16:06.901Z,6.10
2023-03-22T06:18:33.907Z,6.63
2023-03-22T06:21:01.183Z,6.43
2023-03-22T06:23:28.568Z,6.00
2023-03-22T06:25:55.426Z,5.70
2023-03-22T06:28:22.369Z,5.97
2023-03-22T06:30:49.991Z,5.80
2023-03-22T06:33:17.168Z,5.70
2023-03-22T06:35:44.406Z,5.60
2023-03-22T06:38:11.500Z,5.43
2023-03-22T06:40:38.730Z,4.77
2023-03-22T06:43:08.998Z,4.53
2023-03-22T06:45:38.996Z,5.13
2023-03-22T06:48:06.236Z,5.40
2023-03-22T06:50:34.146Z,5.37
2023-03-22T06:53:01.514Z,4.90
2023-03-22T06:55:34.656Z,5.00
2023-03-22T06:58:02.424Z,5.13
2023-03-22T07:00:29.985Z,5.83
2023-03-22T07:02:58.957Z,5.00
2023-03-22T07:05:26.296Z,5.17
2023-03-22T07:07:53.390Z,5.90
2023-03-22T07:10:26.545Z,5.83
2023-03-22T07:12:53.778Z,5.23
2023-03-22T07:15:24.435Z,5.40
2023-03-22T07:17:54.922Z,5.37
2023-03-22T07:20:24.565Z,5.07
2023-03-22T07:22:51.755Z,5.73
2023-03-22T07:25:19.118Z,5.47
2023-03-22T07:27:49.107Z,4.77
2023-03-22T07:30:16.128Z,5.20
2023-03-22T07:32:50.915Z,5.47
2023-03-22T07:35:21.009Z,5.17
2023-03-22T07:37:53.631Z,5.10
2023-03-22T07:40:21.105Z,4.83
2023-03-22T07:42:50.086Z,4.90
2023-03-22T07:45:19.472Z,4.83
2023-03-22T07:47:47.139Z,5.30
2023-03-22T07:50:14.721Z,4.77
2023-03-22T07:52:42.542Z,5.10
2023-03-22T07:55:12.260Z,4.53
2023-03-22T07:57:40.658Z,5.30
2023-03-22T08:00:10.903Z,4.97
2023-03-22T08:02:39.549Z,4.90
2023-03-22T08:05:07.480Z,4.30
2023-03-22T08:07:34.977Z,4.77
2023-03-22T08:10:02.684Z,4.60
2023-03-22T08:12:30.397Z,4.90
2023-03-22T08:14:57.657Z,4.27
2023-03-22T08:17:26.468Z,4.13
2023-03-22T08:19:57.282Z,4.40
2023-03-22T08:22:32.098Z,4.80
2023-03-22T08:24:59.489Z,4.00
2023-03-22T08:27:27.371Z,3.77
2023-03-22T08:29:54.797Z,4.40
2023-03-22T08:32:22.249Z,3.90
2023-03-22T08:34:49.421Z,4.83
2023-03-22T08:37:17.001Z,4.50
2023-03-22T08:39:44.359Z,4.10
2023-03-22T08:42:13.401Z,3.90
2023-03-22T08:44:40.936Z,3.73
2023-03-22T08:47:09.396Z,3.63
2023-03-22T08:49:42.216Z,3.60
2023-03-22T08:52:09.558Z,4.20
2023-03-22T08:54:36.638Z,3.17
2023-03-22T08:57:04.526Z,3.53
2023-03-22T08:59:31.509Z,3.37
2023-03-22T09:01:58.761Z,2.90
2023-03-22T09:04:26.918Z,3.03
2023-03-22T09:06:54.057Z,2.90
2023-03-22T09:09:21.387Z,3.00
2023-03-22T09:11:52.221Z,2.77
2023-03-22T09:14:19.632Z,3.03
2023-03-22T09:16:47.612Z,2.77
2023-03-22T09:19:20.856Z,2.50
2023-03-22T09:21:47.752Z,2.87
2023-03-22T09:24:17.455Z,2.83
2023-03-22T09:26:45.021Z,2.80
2023-03-22T09:29:12.264Z,3.07
2023-03-22T09:31:40.297Z,2.60
2023-03-22T09:34:08.152Z,2.53
2023-03-22T09:36:35.101Z,2.60
2023-03-22T09:39:05.488Z,2.60
2023-03-22T09:42:08.245Z,2.30
2023-03-22T09:44:43.836Z,2.30
2023-03-22T09:47:22.293Z,2.80
2023-03-22T09:49:55.468Z,2.80
2023-03-22T09:52:22.683Z,2.47
2023-03-22T09:54:52.597Z,2.43
2023-03-22T09:57:26.305Z,2.30
2023-03-22T10:00:13.457Z,2.40
2023-03-22T10:02:51.274Z,2.30
2023-03-22T10:05:47.523Z,2.23
2023-03-22T10:08:54.189Z,2.30
2023-03-22T10:11:46.101Z,2.63
2023-03-22T10:14:37.422Z,2.13
2023-03-22T10:17:14.226Z,1.87
2023-03-22T10:19:54.335Z,1.63
2023-03-22T10:22:26.764Z,2.10
2023-03-22T10:24:54.778Z,2.20
2023-03-22T10:27:24.067Z,2.47
2023-03-22T10:29:53.869Z,2.10
2023-03-22T10:32:34.204Z,2.30
2023-03-22T10:35:08.860Z,2.40
2023-03-22T10:37:39.554Z,2.33
2023-03-22T10:40:08.356Z,2.80
2023-03-22T10:42:39.035Z,2.80
2023-03-22T10:45:09.683Z,1.93
2023-03-22T10:47:43.075Z,2.50
2023-03-22T10:50:21.717Z,2.17
2023-03-22T10:53:06.655Z,3.03
2023-03-22T10:55:39.144Z,3.40
2023-03-22T10:58:34.270Z,2.60
2023-03-22T11:01:11.635Z,2.30
2023-03-22T11:03:44.580Z,2.57
2023-03-22T11:06:26.404Z,2.47
2023-03-22T11:09:02.167Z,2.37
2023-03-22T11:11:59.550Z,2.40
2023-03-22T11:14:45.808Z,2.27
2023-03-22T11:17:18.271Z,2.07
2023-03-22T11:19:55.481Z,2.00
2023-03-22T11:22:46.472Z,2.57
2023-03-22T11:25:26.924Z,2.53
2023-03-22T11:28:21.963Z,2.63
2023-03-22T11:31:04.667Z,2.43
2023-03-22T11:33:32.501Z,2.60
2023-03-22T11:36:17.897Z,2.20
2023-03-22T11:38:47.260Z,2.20
2023-03-22T11:41:25.006Z,2.20
2023-03-22T11:44:19.345Z,2.33
2023-03-22T11:46:54.662Z,2.20
2023-03-22T11:49:31.466Z,2.27
2023-03-22T11:52:09.620Z,2.87
2023-03-22T11:54:40.288Z,2.17
2023-03-22T11:57:14.366Z,2.40
2023-03-22T11:59:53.189Z,2.80
2023-03-22T12:02:25.783Z,2.13
2023-03-22T12:05:19.253Z,2.10
2023-03-22T12:07:48.776Z,2.27
2023-03-22T12:10:43.675Z,3.80
2023-03-22T12:13:23.224Z,2.90
2023-03-22T12:15:56.825Z,2.40
2023-03-22T12:18:38.272Z,2.50
2023-03-22T12:21:05.552Z,2.83
2023-03-22T12:23:35.544Z,2.43
2023-03-22T12:26:08.097Z,2.80
2023-03-22T12:28:45.640Z,2.40
2023-03-22T12:31:30.704Z,2.67
2023-03-22T12:34:15.151Z,2.50
2023-03-22T12:37:03.470Z,1.73
2023-03-22T12:39:59.655Z,2.07
2023-03-22T12:42:35.057Z,2.97
2023-03-22T12:45:21.329Z,2.07
2023-03-22T12:48:02.511Z,3.40
2023-03-22T12:50:47.196Z,3.03
2023-03-22T12:53:17.645Z,2.10
2023-03-22T12:55:46.744Z,1.90
2023-03-22T12:58:20.382Z,1.87
2023-03-22T13:00:56.131Z,2.00
2023-03-22T13:03:45.436Z,3.57
2023-03-22T13:06:46.665Z,7.47
2023-03-22T13:09:24.793Z,1.80
2023-03-22T13:12:16.789Z,1.70
2023-03-22T13:14:53.069Z,1.40
2023-03-22T13:17:23.159Z,1.20
2023-03-22T13:19:54.341Z,1.23
2023-03-22T13:22:30.686Z,1.43
2023-03-22T13:25:17.391Z,1.50
2023-03-22T13:27:57.446Z,1.63
2023-03-22T13:30:50.081Z,1.20
2023-03-22T13:33:31.809Z,1.30
2023-03-22T13:36:21.152Z,1.60
2023-03-22T13:38:55.571Z,1.97
2023-03-22T13:41:29.431Z,2.13
2023-03-22T13:44:01.480Z,1.43
2023-03-22T13:46:45.465Z,1.90
2023-03-22T13:49:32.031Z,2.13
2023-03-22T13:52:07.230Z,1.60
2023-03-22T13:54:48.393Z,1.60
2023-03-22T13:57:47.463Z,1.40
2023-03-22T14:00:20.924Z,1.30
2023-03-22T14:02:51.881Z,1.40
2023-03-22T14:05:23.650Z,1.40
2023-03-22T14:07:57.740Z,1.20
2023-03-22T14:10:49.550Z,1.40
2023-03-22T14:13:41.703Z,1.50
2023-03-22T14:16:18.352Z,1.17
2023-03-22T14:18:48.691Z,1.50
2023-03-22T14:21:34.738Z,1.20
